Time;durP1;ratioP1;P1;durP2;ratioP2;P2;SDS_P1;SDS_P2;PMS_P1;PMS_P2;Temp;Humidity;BMP_temperature;BMP_pressure;BME280_temperature;BME280_humidity;BME280_pressure;Samples;Min_cycle;Max_cycle;Signal;HPM_P1;HPM_P2
2023/12/30 00:00:39;;;;;;;5.67;2.43;;;24.50;50.90;;;;;;4941136;28;89152;-62
2023/12/30 00:03:07;;;;;;;3.27;2.23;;;24.50;50.80;;;;;;4956839;28;88698;-63
2023/12/30 00:05:37;;;;;;;3.90;2.33;;;24.50;50.70;;;;;;4960649;28;87576;-63
2023/12/30 00:08:05;;;;;;;3.53;2.37;;;24.40;51.40;;;;;;4966840;28;89948;-63
2023/12/30 00:10:33;;;;;;;5.43;1.80;;;24.40;50.80;;;;;;4979813;28;90079;-63
2023/12/30 00:13:02;;;;;;;5.93;2.13;;;24.40;50.70;;;;;;4980911;28;89676;-64
2023/12/30 00:15:31;;;;;;;3.73;2.13;;;24.40;50.70;;;;;;4984371;28;87553;-66
2023/12/30 00:17:59;;;;;;;3.37;1.73;;;24.30;50.60;;;;;;4968827;28;88500;-63
2023/12/30 00:20:27;;;;;;;2.27;1.53;;;24.30;50.60;;;;;;4982458;28;89438;-63
2023/12/30 00:22:56;;;;;;;2.47;1.57;;;24.30;50.70;;;;;;4978220;28;90857;-63
2023/12/30 00:25:25;;;;;;;3.67;1.90;;;24.30;50.70;;;;;;4963112;28;87680;-63
2023/12/30 00:27:53;;;;;;;2.00;1.60;;;24.30;50.60;;;;;;4965081;28;89696;-63
2023/12/30 00:30:21;;;;;;;2.77;1.60;;;24.20;51.20;;;;;;4983129;28;89195;-63
2023/12/30 00:32:49;;;;;;;2.00;1.70;;;24.20;50.60;;;;;;4967260;28;87584;-63
2023/12/30 00:35:18;;;;;;;3.23;1.60;;;24.20;50.60;;;;;;4962828;28;87905;-64
2023/12/30 00:37:45;;;;;;;3.43;2.17;;;24.20;50.60;;;;;;4962611;28;88602;-64
2023/12/30 00:40:15;;;;;;;2.20;1.67;;;24.20;50.60;;;;;;4963021;28;88988;-63
2023/12/30 00:42:53;;;;;;;3.43;1.57;;;24.10;50.60;;;;;;4962820;28;88875;-63
2023/12/30 00:45:21;;;;;;;2.53;1.87;;;24.10;50.50;;;;;;4963305;28;87526;-63
2023/12/30 00:47:49;;;;;;;1.63;1.50;;;24.10;50.50;;;;;;4961778;28;89676;-63
2023/12/30 00:50:18;;;;;;;1.60;1.27;;;24.10;50.50;;;;;;4962640;28;89161;-63
2023/12/30 00:52:46;;;;;;;1.87;1.20;;;24.10;50.30;;;;;;4963162;28;88825;-64
2023/12/30 00:55:16;;;;;;;2.27;1.50;;;24.00;50.20;;;;;;4962806;28;87773;-63
2023/12/30 00:57:44;;;;;;;1.30;1.20;;;24.00;50.20;;;;;;4962755;28;89701;-63
2023/12/30 01:00:13;;;;;;;2.17;1.33;;;24.00;50.10;;;;;;4961486;28;90018;-64
2023/12/30 01:02:41;;;;;;;3.27;1.53;;;24.00;50.00;;;;;;4962120;28;89474;-64
2023/12/30 01:05:09;;;;;;;1.80;1.17;;;24.00;50.00;;;;;;4962754;28;87420;-63
2023/12/30 01:07:37;;;;;;;2.47;1.57;;;24.00;50.60;;;;;;4962717;28;89859;-63
2023/12/30 01:10:06;;;;;;;2.30;1.57;;;24.00;50.10;;;;;;4977636;28;89101;-63
2023/12/30 01:12:36;;;;;;;1.93;1.37;;;23.90;49.90;;;;;;4982711;28;89419;-63
2023/12/30 01:15:05;;;;;;;1.40;1.30;;;23.90;50.00;;;;;;4981922;28;87592;-63
2023/12/30 01:17:33;;;;;;;2.90;1.60;;;23.90;50.00;;;;;;4974754;28;89542;-63
2023/12/30 01:20:03;;;;;;;3.13;0.97;;;23.90;49.50;;;;;;4961988;28;88937;-63
2023/12/30 01:22:31;;;;;;;4.07;1.33;;;23.90;49.40;;;;;;4962565;28;88784;-63
2023/12/30 01:24:59;;;;;;;2.33;1.10;;;23.80;49.40;;;;;;4962098;28;88017;-63
2023/12/30 01:27:27;;;;;;;1.10;1.00;;;23.80;49.40;;;;;;4962740;28;89836;-63
2023/12/30 01:29:56;;;;;;;1.80;1.33;;;23.80;49.40;;;;;;4973079;28;88009;-63
2023/12/30 01:32:24;;;;;;;3.83;1.63;;;23.80;49.40;;;;;;4977452;28;88845;-63
2023/12/30 01:34:52;;;;;;;1.30;1.20;;;23.80;49.50;;;;;;4962404;28;87716;-63
2023/12/30 01:37:20;;;;;;;1.13;1.03;;;23.70;49.40;;;;;;4962756;28;89790;-63
2023/12/30 01:39:49;;;;;;;1.10;0.90;;;23.70;49.40;;;;;;4962002;28;89107;-64
2023/12/30 01:42:17;;;;;;;2.07;1.60;;;23.70;49.40;;;;;;4961755;28;88651;-63
2023/12/30 01:44:45;;;;;;;1.27;1.17;;;23.70;49.40;;;;;;4961617;28;87785;-63
2023/12/30 01:47:14;;;;;;;1.83;1.30;;;23.70;49.40;;;;;;4961735;28;89630;-63
2023/12/30 01:49:44;;;;;;;2.17;1.10;;;23.70;49.30;;;;;;4977409;28;90043;-63
2023/12/30 01:52:12;;;;;;;1.40;1.30;;;23.60;49.30;;;;;;4981884;28;89762;-63
2023/12/30 01:54:40;;;;;;;1.77;0.93;;;23.60;49.20;;;;;;4981664;28;87741;-63
2023/12/30 01:57:08;;;;;;;3.30;1.00;;;23.60;49.30;;;;;;4981550;28;89799;-64
2023/12/30 01:59:36;;;;;;;1.37;0.87;;;23.60;49.20;;;;;;4981543;28;89152;-63
2023/12/30 02:02:04;;;;;;;0.83;0.83;;;23.60;49.20;;;;;;4981825;28;88931;-63
2023/12/30 02:04:34;;;;;;;0.70;0.70;;;23.60;49.20;;;;;;4982090;28;87775;-63
2023/12/30 02:07:02;;;;;;;1.90;1.23;;;23.60;49.10;;;;;;4981130;28;89642;-63
2023/12/30 02:09:31;;;;;;;2.87;0.93;;;23.60;49.40;;;;;;4980950;28;91240;-63
2023/12/30 02:11:59;;;;;;;1.10;1.03;;;23.50;49.10;;;;;;4981348;28;89164;-63
2023/12/30 02:14:28;;;;;;;1.23;0.70;;;23.50;49.00;;;;;;4981221;28;87720;-63
2023/12/30 02:16:56;;;;;;;2.17;0.90;;;23.50;49.00;;;;;;4980838;28;89883;-63
2023/12/30 02:19:24;;;;;;;3.40;1.17;;;23.50;49.00;;;;;;4980928;28;89189;-63
2023/12/30 02:21:53;;;;;;;1.13;0.70;;;23.50;49.00;;;;;;4981194;28;88334;-63
2023/12/30 02:24:23;;;;;;;0.73;0.70;;;23.50;49.00;;;;;;4981655;28;87440;-63
2023/12/30 02:26:51;;;;;;;0.77;0.77;;;23.50;49.00;;;;;;4981056;28;92951;-63
2023/12/30 02:29:19;;;;;;;2.80;0.80;;;23.40;49.10;;;;;;4981195;28;89140;-63
2023/12/30 02:31:47;;;;;;;2.87;0.80;;;23.40;49.20;;;;;;4981870;28;88874;-63
2023/12/30 02:34:16;;;;;;;1.13;0.87;;;23.50;49.60;;;;;;4981502;28;87619;-63
2023/12/30 02:36:44;;;;;;;1.93;1.20;;;23.40;49.50;;;;;;4980588;28;89740;-63
2023/12/30 02:39:12;;;;;;;1.47;0.77;;;23.40;49.50;;;;;;4980346;28;90620;-63
2023/12/30 02:41:42;;;;;;;0.77;0.73;;;23.40;49.50;;;;;;4980628;28;92000;-63
2023/12/30 02:44:10;;;;;;;0.67;0.53;;;23.40;49.50;;;;;;4981339;28;87671;-63
2023/12/30 02:46:38;;;;;;;1.60;0.93;;;23.40;49.50;;;;;;4981063;28;92634;-63
2023/12/30 02:49:06;;;;;;;1.77;0.70;;;23.40;49.60;;;;;;4980674;28;89113;-63
2023/12/30 02:51:34;;;;;;;1.47;0.70;;;23.40;49.70;;;;;;4981130;28;88518;-63
2023/12/30 02:54:03;;;;;;;0.80;0.80;;;23.30;49.70;;;;;;4981396;28;87695;-63
2023/12/30 02:56:31;;;;;;;0.60;0.60;;;23.40;50.00;;;;;;4980999;28;89765;-63
2023/12/30 02:59:01;;;;;;;1.90;0.90;;;23.30;50.10;;;;;;4980747;28;89001;-63
2023/12/30 03:01:30;;;;;;;2.27;0.50;;;23.30;50.30;;;;;;4980507;28;90011;-63
2023/12/30 03:03:58;;;;;;;0.80;0.80;;;23.30;50.30;;;;;;4980481;28;87889;-63
2023/12/30 03:06:27;;;;;;;1.50;0.97;;;23.30;50.50;;;;;;4980659;28;90003;-63
2023/12/30 03:08:55;;;;;;;0.97;0.80;;;23.30;50.50;;;;;;4980252;28;89236;-63
2023/12/30 03:11:23;;;;;;;2.43;0.80;;;23.20;50.50;;;;;;4980214;28;88847;-63
2023/12/30 03:13:51;;;;;;;1.27;0.70;;;23.20;51.20;;;;;;4980605;28;87493;-63
2023/12/30 03:16:21;;;;;;;0.70;0.70;;;23.20;50.40;;;;;;4980815;28;89655;-63
2023/12/30 03:18:49;;;;;;;1.37;0.60;;;23.20;50.70;;;;;;4980841;28;89141;-64
2023/12/30 03:21:18;;;;;;;1.30;1.07;;;23.20;50.70;;;;;;4980609;28;89068;-64
2023/12/30 03:23:47;;;;;;;1.23;0.87;;;23.20;50.70;;;;;;4979944;28;87658;-63
2023/12/30 03:26:15;;;;;;;0.63;0.50;;;23.20;50.80;;;;;;4979879;28;88553;-63
2023/12/30 03:28:43;;;;;;;1.67;1.00;;;23.10;50.80;;;;;;4979797;28;90085;-63
2023/12/30 03:31:22;;;;;;;1.93;1.10;;;23.10;50.70;;;;;;4980548;28;89814;-63
2023/12/30 03:33:50;;;;;;;1.30;1.13;;;23.20;50.90;;;;;;4980555;28;87568;-63
2023/12/30 03:36:18;;;;;;;3.03;1.17;;;23.10;50.70;;;;;;4979756;28;89505;-64
2023/12/30 03:38:48;;;;;;;1.70;1.20;;;23.10;50.60;;;;;;4979723;28;89184;-63
2023/12/30 03:41:16;;;;;;;2.80;1.40;;;23.10;50.10;;;;;;4979069;28;88608;-63
2023/12/30 03:43:44;;;;;;;2.40;1.43;;;23.10;49.80;;;;;;4980679;28;87491;-63
2023/12/30 03:46:12;;;;;;;3.07;1.87;;;23.10;49.60;;;;;;4980685;28;89647;-63
2023/12/30 03:48:41;;;;;;;3.13;1.30;;;23.10;49.40;;;;;;4983257;28;88222;-63
2023/12/30 03:51:09;;;;;;;3.33;1.93;;;23.00;49.20;;;;;;4983108;28;89017;-63
2023/12/30 03:53:37;;;;;;;1.87;1.67;;;23.00;49.10;;;;;;4982857;28;88007;-63
2023/12/30 03:56:06;;;;;;;2.93;1.97;;;23.00;48.90;;;;;;4983440;28;91809;-63
2023/12/30 03:58:34;;;;;;;2.73;1.43;;;23.00;48.50;;;;;;4983270;28;89047;-63
2023/12/30 04:01:03;;;;;;;3.77;2.20;;;23.00;48.50;;;;;;4983050;28;87826;-63
2023/12/30 04:03:31;;;;;;;3.40;1.50;;;22.90;48.40;;;;;;4983662;28;87615;-63
2023/12/30 04:06:01;;;;;;;6.30;1.70;;;22.90;48.40;;;;;;4982684;28;89482;-64
2023/12/30 04:08:29;;;;;;;2.13;1.60;;;22.90;48.40;;;;;;4982531;28;89533;-63
2023/12/30 04:10:57;;;;;;;2.60;2.00;;;22.90;48.40;;;;;;4983694;28;88949;-63
2023/12/30 04:13:26;;;;;;;3.80;2.10;;;22.90;48.40;;;;;;4983691;28;87616;-64
2023/12/30 04:15:54;;;;;;;4.17;2.43;;;22.90;48.40;;;;;;4983256;28;89797;-63
2023/12/30 04:18:22;;;;;;;1.77;1.47;;;22.90;48.40;;;;;;4982474;28;90088;-63
2023/12/30 04:20:50;;;;;;;2.83;2.23;;;22.90;48.40;;;;;;4982693;28;89714;-63
2023/12/30 04:23:19;;;;;;;2.23;1.90;;;22.90;48.40;;;;;;4982447;28;87619;-64
2023/12/30 04:25:47;;;;;;;2.17;1.33;;;22.90;48.40;;;;;;4982389;28;89873;-64
2023/12/30 04:28:15;;;;;;;2.07;1.77;;;22.80;48.40;;;;;;4982597;28;88030;-64
2023/12/30 04:30:43;;;;;;;3.77;2.27;;;22.90;48.50;;;;;;4982694;28;88863;-63
2023/12/30 04:33:11;;;;;;;3.47;1.43;;;22.80;48.40;;;;;;4982495;28;87227;-64
2023/12/30 04:35:41;;;;;;;4.13;1.90;;;22.80;48.40;;;;;;4983376;28;89738;-64
2023/12/30 04:38:09;;;;;;;3.33;2.10;;;22.80;48.40;;;;;;4983204;28;89205;-63
2023/12/30 04:40:38;;;;;;;3.23;2.00;;;22.80;48.50;;;;;;4982148;28;88966;-64
2023/12/30 04:43:06;;;;;;;2.27;1.90;;;22.80;48.50;;;;;;4982283;28;88874;-63
2023/12/30 04:45:34;;;;;;;3.13;2.20;;;22.80;48.50;;;;;;4969260;28;90009;-64
2023/12/30 04:48:03;;;;;;;3.23;2.73;;;22.80;48.60;;;;;;4963342;28;87954;-64
2023/12/30 04:50:31;;;;;;;2.93;2.40;;;22.80;48.60;;;;;;4963319;28;88943;-63
2023/12/30 04:52:59;;;;;;;3.30;2.30;;;22.80;48.70;;;;;;4963538;28;87905;-64
2023/12/30 04:55:28;;;;;;;4.57;2.97;;;22.80;48.90;;;;;;4962711;28;89697;-64
2023/12/30 04:57:58;;;;;;;5.73;2.70;;;22.70;48.90;;;;;;4962270;28;89070;-63
2023/12/30 05:00:26;;;;;;;3.27;2.77;;;22.70;49.10;;;;;;4961985;28;88758;-63
2023/12/30 05:02:54;;;;;;;3.03;2.57;;;22.70;49.20;;;;;;4962613;28;87705;-64
2023/12/30 05:05:22;;;;;;;6.63;3.40;;;22.70;49.20;;;;;;4962531;28;89771;-63
2023/12/30 05:07:50;;;;;;;6.27;2.97;;;22.70;49.30;;;;;;4961765;28;90044;-64
2023/12/30 05:10:18;;;;;;;4.83;2.90;;;22.70;49.30;;;;;;4962881;28;89815;-63
2023/12/30 05:12:46;;;;;;;7.53;3.17;;;22.60;49.30;;;;;;4962619;28;87369;-63
2023/12/30 05:15:16;;;;;;;5.67;3.10;;;22.60;49.30;;;;;;4962160;28;89707;-63
2023/12/30 05:17:44;;;;;;;7.70;4.40;;;22.60;49.40;;;;;;4962393;28;89214;-63
2023/12/30 05:20:16;;;;;;;4.77;2.90;;;22.70;50.20;;;;;;4962405;28;88764;-63
2023/12/30 05:22:44;;;;;;;4.93;3.30;;;22.60;49.40;;;;;;4962016;28;87520;-63
2023/12/30 05:25:12;;;;;;;4.90;3.43;;;22.60;49.50;;;;;;4961416;28;88459;-64
2023/12/30 05:27:40;;;;;;;7.87;3.37;;;22.60;49.50;;;;;;4962994;28;88763;-64
2023/12/30 05:30:09;;;;;;;6.87;3.70;;;22.60;49.60;;;;;;4962850;28;88942;-63
2023/12/30 05:32:39;;;;;;;8.50;4.70;;;22.60;49.70;;;;;;4961745;28;88262;-63
2023/12/30 05:35:07;;;;;;;8.65;5.63;;;22.50;49.80;;;;;;4961057;28;89943;-62
2023/12/30 05:37:36;;;;;;;8.10;5.13;;;22.50;48.10;;;;;;4962346;28;89307;-63
2023/12/30 05:40:06;;;;;;;8.53;5.00;;;22.70;48.00;;;;;;4962701;28;88866;-62
2023/12/30 05:42:34;;;;;;;7.40;4.47;;;22.70;48.00;;;;;;4962860;28;87664;-62
2023/12/30 05:45:02;;;;;;;9.40;5.37;;;22.70;48.00;;;;;;4962589;28;89619;-61
2023/12/30 05:47:30;;;;;;;6.63;4.63;;;22.70;48.10;;;;;;4962664;28;89124;-61
2023/12/30 05:50:00;;;;;;;8.93;4.77;;;22.80;48.20;;;;;;4960118;28;88808;-61
2023/12/30 05:52:28;;;;;;;6.50;3.87;;;22.80;48.30;;;;;;4962253;28;87736;-61
2023/12/30 05:54:56;;;;;;;9.07;4.80;;;22.80;48.20;;;;;;4962344;28;89677;-61
2023/12/30 05:57:25;;;;;;;7.17;4.27;;;22.90;48.30;;;;;;4962023;28;88801;-61
2023/12/30 05:59:53;;;;;;;11.83;5.57;;;23.10;48.30;;;;;;4962115;28;89872;-62
2023/12/30 06:02:21;;;;;;;9.00;6.00;;;23.30;48.30;;;;;;4962374;28;87660;-61
2023/12/30 06:04:49;;;;;;;7.27;4.70;;;23.40;48.30;;;;;;4961637;28;89788;-62
2023/12/30 06:07:19;;;;;;;8.03;5.90;;;23.60;48.30;;;;;;4962130;28;87834;-61
2023/12/30 06:09:47;;;;;;;6.77;5.30;;;23.80;48.20;;;;;;4962073;28;88841;-62
2023/12/30 06:12:15;;;;;;;6.53;4.53;;;24.00;48.20;;;;;;4961519;28;87600;-61
2023/12/30 06:14:43;;;;;;;10.73;6.13;;;24.20;48.10;;;;;;4962276;28;89764;-61
2023/12/30 06:17:11;;;;;;;9.33;5.93;;;24.40;48.00;;;;;;4961862;28;89060;-61
2023/12/30 06:19:39;;;;;;;9.37;6.20;;;24.60;48.00;;;;;;4961868;28;88818;-61
2023/12/30 06:22:07;;;;;;;10.40;6.33;;;24.70;47.90;;;;;;4960865;28;88049;-64
2023/12/30 06:24:37;;;;;;;10.53;7.33;;;24.90;48.00;;;;;;4962198;28;89452;-61
2023/12/30 06:27:05;;;;;;;10.23;5.63;;;24.90;47.90;;;;;;4973398;28;88787;-61
2023/12/30 06:29:33;;;;;;;8.83;5.93;;;24.90;47.80;;;;;;4972239;28;88839;-60
2023/12/30 06:32:01;;;;;;;8.57;6.50;;;24.90;48.50;;;;;;4960761;28;87789;-61
2023/12/30 06:34:30;;;;;;;10.80;7.03;;;24.90;47.90;;;;;;4961167;28;89686;-61
2023/12/30 06:36:59;;;;;;;9.47;6.40;;;24.90;47.90;;;;;;4961758;28;89396;-61
2023/12/30 06:39:27;;;;;;;11.07;5.87;;;24.80;47.90;;;;;;4961642;28;89008;-61
2023/12/30 06:41:59;;;;;;;9.37;6.17;;;24.80;48.00;;;;;;4961792;28;87630;-60
2023/12/30 06:44:28;;;;;;;10.47;5.67;;;24.70;47.90;;;;;;4961520;28;89251;-61
2023/12/30 06:46:56;;;;;;;18.13;6.90;;;24.70;48.00;;;;;;4960861;28;90205;-61
2023/12/30 06:49:25;;;;;;;11.67;6.77;;;24.60;48.00;;;;;;4960570;28;89786;-61
2023/12/30 06:51:53;;;;;;;15.30;7.93;;;24.60;48.10;;;;;;4960744;28;87502;-61
2023/12/30 06:54:21;;;;;;;12.47;6.70;;;24.60;48.10;;;;;;4960842;28;89827;-61
2023/12/30 06:56:50;;;;;;;9.83;6.97;;;24.50;48.10;;;;;;4962222;28;89083;-61
2023/12/30 06:59:20;;;;;;;9.50;6.73;;;24.50;48.10;;;;;;4960875;28;88954;-61
2023/12/30 07:01:48;;;;;;;12.83;8.23;;;24.40;48.10;;;;;;4961197;28;87694;-61
2023/12/30 07:04:16;;;;;;;8.40;6.13;;;24.40;48.20;;;;;;4960472;28;90041;-61
2023/12/30 07:06:44;;;;;;;10.50;7.10;;;24.30;48.10;;;;;;4962248;28;89230;-61
2023/12/30 07:09:12;;;;;;;12.37;7.93;;;24.30;48.20;;;;;;4960264;28;89257;-61
2023/12/30 07:11:40;;;;;;;12.03;6.73;;;24.30;48.20;;;;;;4970771;28;87694;-61
2023/12/30 07:14:08;;;;;;;8.97;7.10;;;24.20;48.20;;;;;;4961297;28;88508;-61
2023/12/30 07:16:37;;;;;;;11.73;7.43;;;24.20;48.90;;;;;;4960655;28;89486;-61
2023/12/30 07:19:06;;;;;;;12.17;7.63;;;24.10;48.20;;;;;;4965037;28;88801;-62
2023/12/30 07:21:34;;;;;;;9.30;6.07;;;24.10;48.20;;;;;;4966449;28;87595;-62
2023/12/30 07:24:02;;;;;;;9.13;6.20;;;24.10;48.30;;;;;;4960039;28;89662;-62
2023/12/30 07:26:30;;;;;;;13.60;7.77;;;24.10;48.30;;;;;;4960684;28;89245;-62
2023/12/30 07:28:58;;;;;;;12.83;7.53;;;24.00;48.30;;;;;;4960623;28;87701;-62
2023/12/30 07:31:26;;;;;;;10.97;6.73;;;24.00;48.30;;;;;;4964455;28;87653;-62
2023/12/30 07:33:57;;;;;;;10.10;6.30;;;24.00;48.40;;;;;;4979525;28;89714;-62
2023/12/30 07:36:26;;;;;;;11.97;7.40;;;24.00;48.40;;;;;;4965886;28;90095;-62
2023/12/30 07:38:54;;;;;;;11.17;7.10;;;23.90;48.30;;;;;;4967828;28;89957;-62
2023/12/30 07:41:22;;;;;;;9.17;6.50;;;23.90;49.00;;;;;;4967468;28;87498;-62
2023/12/30 07:43:51;;;;;;;11.23;6.03;;;23.90;48.40;;;;;;4960299;28;89748;-62
2023/12/30 07:46:19;;;;;;;10.73;6.20;;;23.90;48.40;;;;;;4971911;28;88110;-62
2023/12/30 07:48:47;;;;;;;10.80;6.20;;;23.80;48.40;;;;;;4978419;28;89083;-63
2023/12/30 07:51:16;;;;;;;7.13;5.07;;;23.80;48.40;;;;;;4969509;28;87343;-62
2023/12/30 07:53:44;;;;;;;8.37;5.47;;;23.80;48.40;;;;;;4960516;28;89437;-62
2023/12/30 07:56:12;;;;;;;9.60;6.70;;;23.80;48.40;;;;;;4969124;28;91959;-62
2023/12/30 07:58:40;;;;;;;13.07;5.53;;;23.80;48.50;;;;;;4969243;28;88897;-62
2023/12/30 08:01:08;;;;;;;9.40;6.70;;;23.80;48.50;;;;;;4968217;28;87924;-61
2023/12/30 08:03:36;;;;;;;10.30;6.73;;;23.70;48.40;;;;;;4972311;28;89870;-62
2023/12/30 08:06:05;;;;;;;8.07;5.30;;;23.70;48.40;;;;;;4960198;28;89158;-62
2023/12/30 08:08:35;;;;;;;7.47;5.03;;;23.70;48.40;;;;;;4960057;28;88807;-62
2023/12/30 08:11:03;;;;;;;9.33;5.30;;;23.70;48.40;;;;;;4960603;28;87566;-62
2023/12/30 08:13:31;;;;;;;8.23;5.87;;;23.70;48.40;;;;;;4959722;28;89785;-61
2023/12/30 08:15:59;;;;;;;6.73;5.00;;;23.70;48.40;;;;;;4964719;28;89212;-61
2023/12/30 08:18:27;;;;;;;10.13;5.10;;;23.70;48.40;;;;;;4980209;28;87740;-61
2023/12/30 08:20:55;;;;;;;7.07;5.07;;;23.70;48.40;;;;;;4975456;28;87611;-62
2023/12/30 08:23:23;;;;;;;10.53;5.73;;;23.70;48.40;;;;;;4962601;28;89726;-61
2023/12/30 08:25:52;;;;;;;9.47;5.70;;;23.70;48.30;;;;;;4975592;28;90730;-61
2023/12/30 08:28:20;;;;;;;6.70;4.40;;;23.80;48.40;;;;;;4959454;28;90032;-61
2023/12/30 08:30:50;;;;;;;8.47;5.10;;;23.80;48.30;;;;;;4961151;28;87468;-61
2023/12/30 08:33:18;;;;;;;9.30;5.67;;;23.90;48.30;;;;;;4959226;28;89941;-61
2023/12/30 08:35:48;;;;;;;9.27;4.40;;;24.10;48.20;;;;;;4963530;28;89050;-61
2023/12/30 08:38:17;;;;;;;7.07;4.80;;;24.30;48.20;;;;;;4978564;28;89108;-61
2023/12/30 08:40:45;;;;;;;6.93;3.83;;;24.40;48.10;;;;;;4982668;28;87616;-61
2023/12/30 08:43:14;;;;;;;7.43;5.10;;;24.50;48.00;;;;;;4945957;28;89837;-61
2023/12/30 08:45:42;;;;;;;9.27;5.50;;;24.60;47.90;;;;;;4982966;28;89414;-61
2023/12/30 08:48:11;;;;;;;8.93;5.27;;;24.70;47.80;;;;;;4963815;28;88902;-61
2023/12/30 08:50:39;;;;;;;10.17;5.47;;;24.80;47.80;;;;;;4962449;28;87884;-61
2023/12/30 08:53:07;;;;;;;8.83;5.57;;;24.80;47.70;;;;;;4977111;28;89462;-62
2023/12/30 08:55:35;;;;;;;7.00;4.70;;;24.80;47.70;;;;;;4964387;28;89129;-62
2023/12/30 08:58:04;;;;;;;8.47;4.67;;;24.90;47.70;;;;;;4962290;28;89007;-62
2023/12/30 09:00:34;;;;;;;6.77;4.20;;;25.00;47.70;;;;;;4963067;28;87557;-62
2023/12/30 09:03:02;;;;;;;4.97;3.73;;;25.10;47.70;;;;;;4974957;28;88654;-62
2023/12/30 09:05:32;;;;;;;6.93;3.93;;;25.20;47.60;;;;;;4968126;28;87604;-62
2023/12/30 09:08:03;;;;;;;9.13;3.93;;;25.30;47.50;;;;;;4962711;28;88958;-62
2023/12/30 09:10:32;;;;;;;5.83;4.10;;;25.40;47.40;;;;;;4966311;28;88506;-62
2023/12/30 09:13:00;;;;;;;6.23;4.07;;;25.50;47.30;;;;;;4962449;28;89622;-61
2023/12/30 09:15:29;;;;;;;4.60;3.70;;;25.70;47.30;;;;;;4961714;28;90370;-61
2023/12/30 09:17:58;;;;;;;6.50;4.17;;;25.70;47.70;;;;;;4962837;28;88806;-61
2023/12/30 09:20:27;;;;;;;12.47;3.87;;;25.80;47.10;;;;;;4963073;28;87506;-60
2023/12/30 09:22:55;;;;;;;6.53;4.67;;;25.90;47.00;;;;;;4962438;28;88514;-62
2023/12/30 09:25:24;;;;;;;13.57;4.40;;;25.90;47.00;;;;;;4962317;28;89003;-61
2023/12/30 09:27:52;;;;;;;8.90;4.47;;;25.90;47.00;;;;;;4962452;28;89242;-61
2023/12/30 09:30:20;;;;;;;5.87;4.47;;;25.90;47.00;;;;;;4963077;28;87637;-62
2023/12/30 09:32:48;;;;;;;6.93;4.77;;;25.90;47.00;;;;;;4963208;28;89635;-62
2023/12/30 09:35:18;;;;;;;7.13;5.10;;;25.90;47.10;;;;;;4962571;28;89265;-62
2023/12/30 09:37:46;;;;;;;7.10;4.10;;;25.80;47.10;;;;;;4962014;28;88936;-62
2023/12/30 09:40:14;;;;;;;5.37;3.40;;;25.80;47.20;;;;;;4962150;28;87931;-62
2023/12/30 09:42:44;;;;;;;5.73;3.20;;;25.70;47.30;;;;;;4957207;28;89935;-64
2023/12/30 09:45:13;;;;;;;4.63;3.40;;;25.60;47.20;;;;;;4959053;28;89111;-61
2023/12/30 09:47:41;;;;;;;3.63;2.83;;;25.50;47.20;;;;;;4958120;28;87498;-62
2023/12/30 09:50:10;;;;;;;7.63;3.30;;;25.40;47.20;;;;;;4959263;28;87545;-62
2023/12/30 09:52:39;;;;;;;6.00;3.03;;;25.40;47.20;;;;;;4958458;28;89754;-63
2023/12/30 09:55:08;;;;;;;4.53;3.00;;;25.50;47.30;;;;;;4958868;28;89153;-62
2023/12/30 09:57:36;;;;;;;6.97;3.50;;;25.30;47.20;;;;;;4959279;28;89234;-62
2023/12/30 10:00:06;;;;;;;5.47;3.40;;;25.20;47.20;;;;;;4959177;28;87589;-62
2023/12/30 10:02:34;;;;;;;2.97;2.67;;;25.20;47.20;;;;;;4959220;28;89742;-62
2023/12/30 10:05:02;;;;;;;4.60;2.73;;;25.20;47.30;;;;;;4960596;28;90080;-62
2023/12/30 10:07:32;;;;;;;7.03;3.70;;;25.10;47.30;;;;;;4958581;28;90144;-63
2023/12/30 10:10:01;;;;;;;7.13;3.20;;;25.00;47.30;;;;;;4958424;28;87531;-63
2023/12/30 10:12:30;;;;;;;4.57;2.97;;;25.00;47.30;;;;;;4958590;28;90234;-62
2023/12/30 10:14:58;;;;;;;3.67;3.17;;;25.00;47.40;;;;;;4955479;28;89259;-62
2023/12/30 10:17:26;;;;;;;4.97;3.43;;;25.00;47.40;;;;;;4958522;28;88888;-62
2023/12/30 10:19:54;;;;;;;7.43;2.87;;;25.00;47.50;;;;;;4958084;28;87948;-62
2023/12/30 10:22:24;;;;;;;2.87;2.60;;;25.00;47.40;;;;;;4958735;28;89310;-62
2023/12/30 10:24:52;;;;;;;7.47;2.80;;;25.10;47.40;;;;;;4957308;28;89287;-62
2023/12/30 10:27:21;;;;;;;5.63;3.13;;;25.20;47.40;;;;;;4958443;28;88748;-63
2023/12/30 10:29:54;;;;;;;5.90;3.57;;;25.40;47.40;;;;;;4957960;28;88694;-61
2023/12/30 10:32:28;;;;;;;5.23;3.60;;;25.50;47.30;;;;;;4958582;28;89554;-63
2023/12/30 10:34:56;;;;;;;7.57;3.70;;;25.50;47.20;;;;;;4962525;28;89505;-62
2023/12/30 10:37:24;;;;;;;5.50;3.20;;;25.70;47.30;;;;;;4958642;28;88935;-62
2023/12/30 10:39:54;;;;;;;9.70;3.73;;;25.70;47.20;;;;;;4957500;28;87776;-62
2023/12/30 10:42:23;;;;;;;4.47;3.07;;;25.70;47.10;;;;;;4958008;28;89737;-62
2023/12/30 10:44:51;;;;;;;4.30;2.73;;;25.70;47.20;;;;;;4958285;28;89086;-62
2023/12/30 10:47:20;;;;;;;5.23;3.30;;;25.70;47.20;;;;;;4958474;28;88879;-62
2023/12/30 10:49:51;;;;;;;3.53;2.97;;;25.60;47.10;;;;;;4958680;28;87643;-63
2023/12/30 10:52:21;;;;;;;5.00;2.27;;;25.60;47.20;;;;;;4957994;28;89743;-63
2023/12/30 10:54:54;;;;;;;5.70;2.87;;;25.50;47.20;;;;;;4957105;28;90064;-62
2023/12/30 10:57:23;;;;;;;8.37;3.17;;;25.60;47.30;;;;;;4957710;28;92933;-63
2023/12/30 10:59:52;;;;;;;6.10;3.13;;;25.40;47.30;;;;;;4958770;28;88002;-62
2023/12/30 11:02:21;;;;;;;3.90;2.63;;;25.40;47.30;;;;;;4958361;28;89430;-62
2023/12/30 11:04:49;;;;;;;6.90;3.00;;;25.40;47.40;;;;;;4957174;28;89336;-62
2023/12/30 11:07:19;;;;;;;4.27;3.20;;;25.30;47.40;;;;;;4957990;28;88901;-62
2023/12/30 11:09:48;;;;;;;5.37;2.37;;;25.30;47.60;;;;;;4957840;28;87496;-62
2023/12/30 11:12:16;;;;;;;3.63;3.10;;;25.20;47.40;;;;;;4958568;28;89699;-62
2023/12/30 11:14:45;;;;;;;2.57;2.20;;;25.20;47.50;;;;;;4957571;28;89181;-62
2023/12/30 11:17:18;;;;;;;5.07;2.70;;;25.10;47.50;;;;;;4957022;28;88859;-62
2023/12/30 11:19:46;;;;;;;5.97;2.83;;;25.10;47.50;;;;;;4957505;28;88017;-62
2023/12/30 11:22:14;;;;;;;5.07;2.90;;;25.10;47.50;;;;;;4957178;28;89587;-62
2023/12/30 11:24:44;;;;;;;4.10;1.83;;;25.00;47.60;;;;;;4956639;28;89067;-62
2023/12/30 11:27:13;;;;;;;4.40;2.70;;;25.00;47.60;;;;;;4956791;28;88945;-62
2023/12/30 11:29:41;;;;;;;4.83;2.07;;;24.90;47.50;;;;;;4957368;28;87583;-62
2023/12/30 11:32:12;;;;;;;5.17;2.50;;;24.90;47.60;;;;;;4957118;28;93517;-62
2023/12/30 11:34:40;;;;;;;4.40;2.80;;;24.90;47.60;;;;;;4957036;28;89133;-62
2023/12/30 11:37:08;;;;;;;3.50;2.33;;;24.80;47.60;;;;;;4958042;28;88967;-61
2023/12/30 11:39:38;;;;;;;3.63;2.33;;;24.80;47.60;;;;;;4957377;28;87494;-62
2023/12/30 11:42:06;;;;;;;5.00;2.63;;;24.80;47.70;;;;;;4956798;28;89660;-62
2023/12/30 11:44:35;;;;;;;3.67;3.37;;;24.70;47.60;;;;;;4956611;28;89909;-62
2023/12/30 11:47:03;;;;;;;2.90;2.20;;;24.70;47.60;;;;;;4957070;28;89523;-62
2023/12/30 11:49:32;;;;;;;3.90;2.30;;;24.70;47.70;;;;;;4958953;28;87527;-62
2023/12/30 11:52:04;;;;;;;3.83;2.50;;;24.60;47.60;;;;;;4958794;28;89823;-62
2023/12/30 11:54:33;;;;;;;3.83;2.63;;;24.60;47.70;;;;;;4953210;28;89048;-62
2023/12/30 11:57:01;;;;;;;2.93;2.63;;;24.60;47.60;;;;;;4957246;28;88724;-62
2023/12/30 11:59:30;;;;;;;5.27;2.50;;;24.60;47.70;;;;;;4966086;28;87389;-62
2023/12/30 12:02:07;;;;;;;2.83;2.30;;;24.60;47.70;;;;;;4962773;28;89690;-62
2023/12/30 12:04:37;;;;;;;4.53;2.23;;;24.50;47.70;;;;;;4962277;28;88084;-62
2023/12/30 12:07:07;;;;;;;4.60;2.40;;;24.50;47.60;;;;;;4953654;28;88883;-62
2023/12/30 12:09:37;;;;;;;4.27;2.50;;;24.50;47.70;;;;;;4958029;28;88105;-62
2023/12/30 12:12:06;;;;;;;5.73;2.37;;;24.50;47.70;;;;;;4957982;28;89726;-62
2023/12/30 12:14:35;;;;;;;4.33;2.93;;;24.50;47.70;;;;;;4959712;28;89163;-62
2023/12/30 12:17:04;;;;;;;3.70;2.47;;;24.50;47.70;;;;;;4959832;28;88761;-62
2023/12/30 12:19:32;;;;;;;2.63;2.37;;;24.40;47.70;;;;;;4959613;28;88357;-62
2023/12/30 12:22:02;;;;;;;4.67;2.67;;;24.50;47.80;;;;;;4959774;28;88761;-62
2023/12/30 12:24:32;;;;;;;3.80;2.37;;;24.30;47.60;;;;;;4959971;28;89686;-62
2023/12/30 12:27:00;;;;;;;4.10;2.80;;;24.30;47.60;;;;;;4959042;28;89069;-61
2023/12/30 12:29:28;;;;;;;4.07;2.33;;;24.30;47.60;;;;;;4959932;28;87471;-61
2023/12/30 12:31:56;;;;;;;5.33;3.00;;;24.20;47.60;;;;;;4959254;28;89859;-62
2023/12/30 12:34:25;;;;;;;4.47;2.83;;;24.30;47.70;;;;;;4956400;28;90140;-62
2023/12/30 12:36:54;;;;;;;3.03;2.50;;;24.30;47.70;;;;;;4959188;28;89851;-62
2023/12/30 12:39:24;;;;;;;4.83;2.90;;;24.30;47.70;;;;;;4957323;28;87660;-62
2023/12/30 12:41:52;;;;;;;4.70;3.20;;;24.30;47.80;;;;;;4958840;28;89666;-62
2023/12/30 12:44:20;;;;;;;3.43;2.40;;;24.20;47.70;;;;;;4959347;28;89201;-62
2023/12/30 12:46:48;;;;;;;4.27;2.37;;;24.20;47.60;;;;;;4958277;28;88858;-62
2023/12/30 12:49:19;;;;;;;3.87;2.77;;;24.20;47.70;;;;;;4959708;28;87556;-62
2023/12/30 12:51:47;;;;;;;4.83;2.90;;;24.20;47.70;;;;;;4959944;28;89743;-62